createdAt,value
2019-03-10T00:01:41.502Z,92.90
2019-03-10T00:04:12.572Z,92.60
2019-03-10T00:06:45.400Z,92.60
2019-03-10T00:09:16.446Z,92.00
2019-03-10T00:11:47.572Z,92.70
2019-03-10T00:14:19.551Z,92.30
2019-03-10T00:16:50.454Z,92.30
2019-03-10T00:19:21.349Z,92.80
2019-03-10T00:21:52.224Z,92.80
2019-03-10T00:24:23.125Z,92.20
2019-03-10T00:26:55.156Z,91.90
2019-03-10T00:29:26.153Z,92.60
2019-03-10T00:31:57.324Z,92.70
2019-03-10T00:34:28.093Z,92.30
2019-03-10T00:36:59.029Z,92.70
2019-03-10T00:39:58.756Z,91.80
2019-03-10T00:43:15.269Z,91.80
2019-03-10T00:46:12.096Z,92.00
2019-03-10T00:49:29.297Z,91.10
2019-03-10T00:52:05.354Z,91.40
2019-03-10T00:54:36.291Z,91.50
2019-03-10T00:57:07.152Z,91.20
2019-03-10T00:59:38.144Z,90.90
2019-03-10T01:02:09.039Z,91.20
2019-03-10T01:04:40.947Z,90.90
2019-03-10T01:07:11.808Z,90.90
2019-03-10T01:09:42.841Z,91.00
2019-03-10T01:12:13.736Z,91.10
2019-03-10T01:14:44.581Z,91.10
2019-03-10T01:17:15.580Z,91.10
2019-03-10T01:19:46.552Z,91.10
2019-03-10T01:22:18.456Z,91.00
2019-03-10T01:24:49.248Z,91.10
2019-03-10T01:27:20.228Z,91.40
2019-03-10T01:29:53.212Z,91.30
2019-03-10T01:32:59.708Z,91.40
2019-03-10T01:35:34.347Z,91.50
2019-03-10T01:38:05.143Z,91.00
2019-03-10T01:40:36.052Z,91.30
2019-03-10T01:43:08.260Z,91.30
2019-03-10T01:45:39.152Z,91.70
2019-03-10T01:48:10.049Z,91.70
2019-03-10T01:50:40.930Z,91.40
2019-03-10T01:53:11.926Z,91.60
2019-03-10T01:55:42.835Z,91.60
2019-03-10T01:58:13.752Z,91.40
2019-03-10T02:00:44.749Z,91.80
2019-03-10T02:03:15.620Z,91.70
2019-03-10T02:05:46.692Z,91.60
2019-03-10T02:08:17.554Z,91.50
2019-03-10T02:10:48.528Z,91.70
2019-03-10T02:13:19.459Z,91.90
2019-03-10T02:15:50.424Z,91.90
2019-03-10T02:18:21.378Z,91.30
2019-03-10T02:20:52.421Z,91.40
2019-03-10T02:23:23.275Z,91.60
2019-03-10T02:25:54.161Z,91.70
2019-03-10T02:28:25.054Z,91.00
2019-03-10T02:30:55.930Z,91.40
2019-03-10T02:33:26.862Z,91.50
2019-03-10T02:35:57.731Z,90.90
2019-03-10T02:38:28.632Z,91.10
2019-03-10T02:40:59.602Z,91.10
2019-03-10T02:43:30.576Z,90.90
2019-03-10T02:46:01.697Z,90.80
2019-03-10T02:48:32.674Z,90.90
2019-03-10T02:51:03.600Z,91.10
2019-03-10T02:53:34.253Z,90.80
2019-03-10T02:56:05.331Z,91.10
2019-03-10T02:58:36.139Z,90.50
2019-03-10T03:01:07.086Z,90.80
2019-03-10T03:03:38.060Z,91.00
2019-03-10T03:06:09.079Z,91.00
2019-03-10T03:08:39.965Z,91.00
2019-03-10T03:11:10.839Z,90.80
2019-03-10T03:13:41.679Z,91.10
2019-03-10T03:16:12.723Z,91.10
2019-03-10T03:18:43.659Z,90.90
2019-03-10T03:21:14.353Z,91.00
2019-03-10T03:23:45.294Z,91.00
2019-03-10T03:26:16.401Z,91.10
2019-03-10T03:28:47.252Z,91.30
2019-03-10T03:31:18.179Z,91.30
2019-03-10T03:33:49.047Z,91.00
2019-03-10T03:36:27.151Z,91.20
2019-03-10T03:39:22.220Z,91.20
2019-03-10T03:41:53.154Z,91.10
2019-03-10T03:44:24.091Z,91.40
2019-03-10T03:46:54.980Z,91.20
2019-03-10T03:49:27.598Z,91.20
2019-03-10T03:51:58.519Z,91.30
2019-03-10T03:54:29.341Z,91.50
2019-03-10T03:57:00.298Z,91.40
2019-03-10T03:59:31.224Z,91.50
2019-03-10T04:02:15.308Z,91.50
2019-03-10T04:04:45.992Z,91.60
2019-03-10T04:07:17.074Z,91.70
2019-03-10T04:09:47.890Z,91.70
2019-03-10T04:12:18.854Z,91.60
2019-03-10T04:14:49.749Z,91.90
2019-03-10T04:17:20.623Z,91.80
2019-03-10T04:19:53.167Z,91.80
2019-03-10T04:22:24.111Z,91.80
2019-03-10T04:24:55.015Z,92.00
2019-03-10T04:27:25.778Z,92.00
2019-03-10T04:29:56.594Z,92.00
2019-03-10T04:32:27.461Z,92.10
2019-03-10T04:34:58.352Z,92.20
2019-03-10T04:37:29.216Z,92.00
2019-03-10T04:40:00.150Z,92.10
2019-03-10T04:42:32.969Z,92.20
2019-03-10T04:45:03.928Z,92.20
2019-03-10T04:47:34.605Z,92.20
2019-03-10T04:50:05.552Z,92.30
2019-03-10T04:52:36.514Z,92.40
2019-03-10T04:55:29.573Z,92.20
2019-03-10T04:58:13.310Z,92.30
2019-03-10T05:00:45.897Z,92.20
2019-03-10T05:03:16.898Z,92.20
2019-03-10T05:05:47.867Z,92.30
2019-03-10T05:08:19.910Z,92.30
2019-03-10T05:10:50.722Z,92.30
2019-03-10T05:13:21.600Z,92.30
2019-03-10T05:15:52.602Z,92.60
2019-03-10T05:18:23.644Z,92.50
2019-03-10T05:20:54.456Z,92.40
2019-03-10T05:23:29.823Z,92.40
2019-03-10T05:26:00.933Z,92.40
2019-03-10T05:28:32.714Z,92.20
2019-03-10T05:31:03.562Z,92.30
2019-03-10T05:33:34.517Z,92.40
2019-03-10T05:36:05.438Z,92.50
2019-03-10T05:38:37.959Z,92.60
2019-03-10T05:41:08.849Z,92.90
2019-03-10T05:43:39.802Z,92.80
2019-03-10T05:46:10.677Z,93.00
2019-03-10T05:48:41.578Z,92.80
2019-03-10T05:51:12.253Z,93.00
2019-03-10T05:53:43.269Z,92.80
2019-03-10T05:56:14.133Z,92.90
2019-03-10T05:58:45.029Z,92.70
2019-03-10T06:01:15.912Z,92.60
2019-03-10T06:03:46.797Z,92.50
2019-03-10T06:06:17.850Z,92.30
2019-03-10T06:08:50.428Z,92.30
2019-03-10T06:11:21.337Z,92.10
2019-03-10T06:13:52.292Z,92.00
2019-03-10T06:16:24.002Z,92.00
2019-03-10T06:18:54.991Z,91.90
2019-03-10T06:21:25.847Z,91.70
2019-03-10T06:23:56.725Z,91.70
2019-03-10T06:26:29.145Z,91.70
2019-03-10T06:29:01.782Z,91.80
2019-03-10T06:31:33.722Z,91.70
2019-03-10T06:34:05.597Z,91.70
2019-03-10T06:36:36.397Z,91.60
2019-03-10T06:39:07.817Z,91.50
2019-03-10T06:41:38.686Z,91.50
2019-03-10T06:44:09.487Z,91.40
2019-03-10T06:46:40.268Z,91.10
2019-03-10T06:49:11.269Z,90.90
2019-03-10T06:51:42.141Z,91.20
2019-03-10T06:54:13.033Z,90.50
2019-03-10T06:56:43.916Z,90.30
2019-03-10T06:59:14.795Z,90.60
2019-03-10T07:01:45.688Z,90.30
2019-03-10T07:04:18.301Z,90.20
2019-03-10T07:06:49.234Z,90.60
2019-03-10T07:09:20.082Z,90.60
2019-03-10T07:11:51.042Z,90.60
2019-03-10T07:14:21.992Z,90.50
2019-03-10T07:16:52.844Z,90.60
2019-03-10T07:19:23.934Z,90.20
2019-03-10T07:21:54.819Z,90.40
2019-03-10T07:24:25.733Z,90.10
2019-03-10T07:26:56.674Z,88.80
2019-03-10T07:29:34.163Z,90.00
2019-03-10T07:32:26.162Z,88.00
2019-03-10T07:35:13.313Z,87.10
2019-03-10T07:38:03.063Z,87.20
2019-03-10T07:40:52.817Z,86.30
2019-03-10T07:43:43.723Z,85.90
2019-03-10T07:46:26.642Z,87.20
2019-03-10T07:49:19.291Z,85.80
2019-03-10T07:52:20.528Z,87.10
2019-03-10T07:55:28.903Z,86.20
2019-03-10T07:58:11.720Z,83.50
2019-03-10T08:01:01.888Z,83.30
2019-03-10T08:03:51.793Z,83.30
2019-03-10T08:06:59.973Z,81.40
2019-03-10T08:09:36.929Z,81.00
2019-03-10T08:12:45.194Z,83.50
2019-03-10T08:15:24.426Z,81.30
2019-03-10T08:18:03.557Z,78.00
2019-03-10T08:20:56.306Z,80.70
2019-03-10T08:23:37.178Z,76.30
2019-03-10T08:26:32.692Z,77.20
2019-03-10T08:29:21.446Z,75.00
2019-03-10T08:32:11.225Z,76.00
2019-03-10T08:35:06.992Z,76.70
2019-03-10T08:38:06.350Z,75.90
2019-03-10T08:41:02.069Z,75.40
2019-03-10T08:43:52.076Z,75.60
2019-03-10T08:46:50.742Z,73.90
2019-03-10T08:49:45.002Z,73.20
2019-03-10T08:52:19.139Z,73.30
2019-03-10T08:55:07.076Z,71.10
2019-03-10T08:57:47.381Z,73.20
2019-03-10T09:00:38.138Z,74.20
2019-03-10T09:03:36.933Z,75.10
2019-03-10T09:06:36.130Z,71.90
2019-03-10T09:09:23.498Z,72.30
2019-03-10T09:12:03.949Z,73.50
2019-03-10T09:14:53.795Z,73.60
2019-03-10T09:17:52.687Z,73.20
2019-03-10T09:20:44.548Z,73.30
2019-03-10T09:23:33.012Z,70.70
2019-03-10T09:26:22.793Z,70.10
2019-03-10T09:29:21.739Z,74.00
2019-03-10T09:32:17.662Z,71.40
2019-03-10T09:35:10.358Z,71.60
2019-03-10T09:37:49.795Z,67.40
2019-03-10T09:40:54.627Z,69.70
2019-03-10T09:43:50.707Z,71.80
2019-03-10T09:46:55.692Z,68.30
2019-03-10T09:49:48.338Z,70.40
2019-03-10T09:52:38.478Z,69.70
2019-03-10T09:55:25.645Z,66.50
2019-03-10T09:58:15.688Z,66.60
2019-03-10T10:01:04.336Z,68.20
2019-03-10T10:03:52.170Z,69.50
2019-03-10T10:06:53.980Z,68.70
2019-03-10T10:09:58.968Z,71.10
2019-03-10T10:12:52.127Z,70.80
2019-03-10T10:15:51.226Z,66.90
2019-03-10T10:18:39.677Z,69.90
2019-03-10T10:21:27.917Z,68.70
2019-03-10T10:24:17.084Z,69.00
2019-03-10T10:27:03.484Z,68.00
2019-03-10T10:29:52.342Z,68.40
2019-03-10T10:32:45.037Z,70.60
2019-03-10T10:35:24.568Z,71.90
2019-03-10T10:38:24.895Z,69.10
2019-03-10T10:41:13.251Z,67.50
2019-03-10T10:44:06.053Z,67.00
2019-03-10T10:46:40.122Z,69.70
2019-03-10T10:49:21.036Z,67.30
2019-03-10T10:52:01.191Z,63.30
2019-03-10T10:54:53.838Z,66.30
2019-03-10T10:57:41.159Z,65.80
2019-03-10T11:00:29.248Z,66.30
2019-03-10T11:03:28.700Z,67.00
2019-03-10T11:06:19.571Z,65.70
2019-03-10T11:09:07.551Z,66.30
2019-03-10T11:11:50.370Z,63.30
2019-03-10T11:14:49.462Z,66.20
2019-03-10T11:17:41.852Z,63.00
2019-03-10T11:20:25.953Z,66.10
2019-03-10T11:23:15.019Z,65.70
2019-03-10T11:26:08.669Z,65.80
2019-03-10T11:29:03.815Z,66.80
2019-03-10T11:32:01.810Z,65.40
2019-03-10T11:34:49.629Z,65.70
2019-03-10T11:37:51.765Z,69.90
2019-03-10T11:40:47.483Z,66.10
2019-03-10T11:43:46.479Z,67.20
2019-03-10T11:46:41.584Z,67.60
2019-03-10T11:49:34.231Z,65.60
2019-03-10T11:52:19.611Z,67.90
2019-03-10T11:55:20.382Z,68.00
2019-03-10T11:58:15.653Z,70.00
2019-03-10T12:01:04.310Z,66.20
2019-03-10T12:03:53.065Z,65.50
2019-03-10T12:06:36.325Z,65.50
2019-03-10T12:09:23.147Z,67.90
2019-03-10T12:11:53.848Z,69.10
2019-03-10T12:14:25.578Z,69.40
2019-03-10T12:16:56.513Z,65.50
2019-03-10T12:19:27.222Z,65.70
2019-03-10T12:21:58.022Z,68.70
2019-03-10T12:24:28.905Z,70.10
2019-03-10T12:26:59.691Z,68.30
2019-03-10T12:29:30.380Z,70.30
2019-03-10T12:32:01.151Z,70.50
2019-03-10T12:34:31.840Z,68.20
2019-03-10T12:37:02.648Z,70.50
2019-03-10T12:39:33.414Z,71.20
2019-03-10T12:42:04.166Z,71.10
2019-03-10T12:44:35.107Z,72.50
2019-03-10T12:47:06.100Z,69.40
2019-03-10T12:49:37.122Z,71.50
2019-03-10T12:52:07.890Z,74.60
2019-03-10T12:54:38.780Z,76.00
2019-03-10T12:57:09.804Z,78.00
2019-03-10T12:59:40.496Z,75.90
2019-03-10T13:02:11.173Z,75.20
2019-03-10T13:04:42.073Z,76.30
2019-03-10T13:07:13.036Z,76.30
2019-03-10T13:09:43.755Z,71.10
2019-03-10T13:12:14.694Z,75.20
2019-03-10T13:14:46.681Z,75.40
2019-03-10T13:17:17.592Z,77.10
2019-03-10T13:19:48.466Z,77.30
2019-03-10T13:22:19.308Z,75.60
2019-03-10T13:24:50.061Z,76.60
2019-03-10T13:27:20.758Z,75.50
2019-03-10T13:29:51.612Z,76.10
2019-03-10T13:32:22.465Z,76.70
2019-03-10T13:34:53.493Z,75.30
2019-03-10T13:37:24.315Z,76.40
2019-03-10T13:39:55.167Z,73.70
2019-03-10T13:42:26.047Z,77.50
2019-03-10T13:44:56.944Z,81.40
2019-03-10T13:47:27.846Z,82.10
2019-03-10T13:49:58.794Z,81.00
2019-03-10T13:52:30.817Z,80.50
2019-03-10T13:55:01.809Z,81.70
2019-03-10T13:57:33.835Z,82.20
2019-03-10T14:00:04.922Z,82.20
2019-03-10T14:02:36.191Z,85.50
2019-03-10T14:05:07.508Z,85.30
2019-03-10T14:07:38.612Z,81.30
2019-03-10T14:10:10.723Z,80.20
2019-03-10T14:12:41.600Z,82.10
2019-03-10T14:15:12.389Z,79.40
2019-03-10T14:17:43.281Z,78.70
2019-03-10T14:20:14.099Z,80.50
2019-03-10T14:22:45.070Z,82.60
2019-03-10T14:25:15.681Z,83.90
2019-03-10T14:27:46.653Z,82.90
2019-03-10T14:30:17.451Z,83.60
2019-03-10T14:32:48.225Z,83.40
2019-03-10T14:35:19.114Z,82.50
2019-03-10T14:37:49.910Z,83.60
2019-03-10T14:40:20.977Z,83.60
2019-03-10T14:42:51.718Z,84.10
2019-03-10T14:45:22.644Z,85.80
2019-03-10T14:47:53.431Z,85.80
2019-03-10T14:50:24.057Z,86.20
2019-03-10T14:52:54.815Z,85.20
2019-03-10T14:55:25.587Z,83.10
2019-03-10T14:57:56.408Z,84.30
2019-03-10T15:00:26.964Z,84.80
2019-03-10T15:02:57.789Z,86.70
2019-03-10T15:05:29.726Z,86.40
2019-03-10T15:08:00.462Z,84.80
2019-03-10T15:10:31.224Z,84.50
2019-03-10T15:13:01.906Z,84.10
2019-03-10T15:15:32.574Z,85.70
2019-03-10T15:18:03.519Z,84.90
2019-03-10T15:20:34.351Z,85.30
2019-03-10T15:23:05.074Z,84.50
2019-03-10T15:25:35.838Z,86.10
2019-03-10T15:28:06.646Z,85.00
2019-03-10T15:30:37.382Z,86.50
2019-03-10T15:33:08.422Z,86.80
2019-03-10T15:35:39.153Z,84.90
2019-03-10T15:38:09.928Z,86.10
2019-03-10T15:40:40.690Z,85.70
2019-03-10T15:43:11.480Z,86.20
2019-03-10T15:45:42.285Z,86.00
2019-03-10T15:48:13.160Z,86.50
2019-03-10T15:50:43.923Z,89.10
2019-03-10T15:53:14.735Z,88.20
2019-03-10T15:55:45.506Z,89.80
2019-03-10T15:58:16.259Z,88.90
2019-03-10T16:00:47.170Z,90.00
2019-03-10T16:03:17.953Z,90.00
2019-03-10T16:05:48.921Z,90.50
2019-03-10T16:08:19.742Z,89.40
2019-03-10T16:10:50.502Z,88.10
2019-03-10T16:13:22.452Z,89.10
2019-03-10T16:15:53.181Z,89.70
2019-03-10T16:18:23.966Z,89.40
2019-03-10T16:20:56.269Z,90.10
2019-03-10T16:23:27.087Z,88.80
2019-03-10T16:25:58.241Z,90.10
2019-03-10T16:28:29.134Z,90.20
2019-03-10T16:30:59.660Z,90.40
2019-03-10T16:33:30.526Z,90.50
2019-03-10T16:36:01.393Z,90.60
2019-03-10T16:38:32.308Z,90.60
2019-03-10T16:41:03.388Z,90.30
2019-03-10T16:43:34.252Z,90.10
2019-03-10T16:46:05.161Z,90.40
2019-03-10T16:48:36.260Z,88.80
2019-03-10T16:51:07.243Z,89.50
2019-03-10T16:53:37.929Z,89.20
2019-03-10T16:56:08.807Z,90.50
2019-03-10T16:58:39.665Z,90.90
2019-03-10T17:01:10.658Z,91.10
2019-03-10T17:03:41.553Z,91.10
2019-03-10T17:06:12.535Z,91.10
2019-03-10T17:08:43.473Z,92.10
2019-03-10T17:11:14.406Z,92.60
2019-03-10T17:13:47.056Z,92.20
2019-03-10T17:16:18.073Z,92.30
2019-03-10T17:18:48.953Z,92.60
2019-03-10T17:21:19.990Z,92.90
2019-03-10T17:23:50.972Z,93.00
2019-03-10T17:26:21.957Z,93.00
2019-03-10T17:28:52.825Z,93.00
2019-03-10T17:31:23.622Z,93.00
2019-03-10T17:33:54.630Z,93.80
2019-03-10T17:36:25.611Z,93.50
2019-03-10T17:38:56.529Z,92.70
2019-03-10T17:41:27.605Z,93.10
2019-03-10T17:43:58.525Z,93.40
2019-03-10T17:46:29.573Z,94.00
2019-03-10T17:49:02.113Z,94.30
2019-03-10T17:51:33.006Z,94.30
2019-03-10T17:54:03.699Z,93.60
2019-03-10T17:56:34.706Z,93.70
2019-03-10T17:59:05.451Z,94.00
2019-03-10T18:01:36.341Z,94.30
2019-03-10T18:04:07.227Z,94.90
2019-03-10T18:06:38.143Z,94.90
2019-03-10T18:09:08.829Z,94.80
2019-03-10T18:11:40.135Z,94.70
2019-03-10T18:14:11.059Z,94.40
2019-03-10T18:16:41.944Z,94.60
2019-03-10T18:19:12.981Z,94.70
2019-03-10T18:21:45.196Z,95.00
2019-03-10T18:24:16.099Z,95.20
2019-03-10T18:26:47.063Z,95.10
2019-03-10T18:29:18.897Z,95.40
2019-03-10T18:31:49.900Z,95.50
2019-03-10T18:34:20.745Z,95.90
2019-03-10T18:36:53.445Z,95.40
2019-03-10T18:39:24.352Z,95.10
2019-03-10T18:41:55.369Z,95.00
2019-03-10T18:44:26.308Z,95.20
2019-03-10T18:46:57.165Z,95.60
2019-03-10T18:49:28.219Z,95.10
2019-03-10T18:51:59.302Z,95.10
2019-03-10T18:54:30.204Z,95.30
2019-03-10T18:57:01.203Z,95.70
2019-03-10T18:59:32.280Z,95.60
2019-03-10T19:02:03.283Z,96.00
2019-03-10T19:04:34.458Z,95.50
2019-03-10T19:07:05.581Z,95.80
2019-03-10T19:09:36.548Z,96.10
2019-03-10T19:12:07.558Z,96.00
2019-03-10T19:14:38.528Z,95.70
2019-03-10T19:17:11.166Z,96.30
2019-03-10T19:19:43.277Z,96.40
2019-03-10T19:22:14.562Z,95.90
2019-03-10T19:24:45.329Z,95.90
2019-03-10T19:27:16.254Z,96.10
2019-03-10T19:29:47.225Z,96.00
2019-03-10T19:32:18.072Z,95.90
2019-03-10T19:34:48.842Z,95.70
2019-03-10T19:37:20.577Z,95.70
2019-03-10T19:39:53.294Z,95.80
2019-03-10T19:42:24.337Z,95.90
2019-03-10T19:44:55.374Z,96.10
2019-03-10T19:47:26.585Z,95.90
2019-03-10T19:49:57.490Z,96.40
2019-03-10T19:52:28.389Z,96.60
2019-03-10T19:54:59.393Z,96.80
2019-03-10T19:57:30.384Z,96.90
2019-03-10T20:00:01.457Z,97.20
2019-03-10T20:02:33.603Z,97.00
2019-03-10T20:05:04.554Z,97.10
2019-03-10T20:07:36.674Z,97.30
2019-03-10T20:38:32.070Z,97.10
2019-03-10T20:41:02.995Z,97.10
2019-03-10T20:43:34.903Z,97.10
2019-03-10T20:46:05.793Z,97.00
2019-03-10T20:48:36.665Z,96.80
2019-03-10T20:51:07.891Z,97.00
2019-03-10T20:53:38.997Z,97.00
2019-03-10T20:56:10.099Z,96.90
2019-03-10T20:58:41.020Z,96.80
2019-03-10T21:01:12.973Z,96.80
2019-03-10T21:03:44.219Z,96.50
2019-03-10T21:06:15.332Z,96.80
2019-03-10T21:08:46.329Z,96.60
2019-03-10T21:11:17.225Z,96.60
2019-03-10T21:13:48.093Z,96.70
2019-03-10T21:16:19.096Z,96.60
2019-03-10T21:18:49.987Z,97.00
2019-03-10T21:21:20.981Z,96.90
2019-03-10T21:23:51.857Z,97.00
2019-03-10T21:26:22.744Z,96.80
2019-03-10T21:28:53.552Z,96.80
2019-03-10T21:31:24.536Z,96.90
2019-03-10T21:33:56.725Z,96.90
2019-03-10T21:36:27.645Z,96.90
2019-03-10T21:39:06.712Z,96.90
2019-03-10T21:41:38.938Z,97.00
2019-03-10T21:44:11.785Z,96.80
2019-03-10T21:46:43.240Z,96.80
2019-03-10T21:49:14.037Z,96.80
2019-03-10T21:51:45.308Z,96.80
2019-03-10T21:54:18.286Z,96.90
2019-03-10T21:57:00.765Z,96.80
2019-03-10T21:59:33.314Z,96.90
2019-03-10T22:02:04.171Z,97.00
2019-03-10T22:04:35.064Z,97.20
2019-03-10T22:07:05.997Z,96.80
2019-03-10T22:09:36.748Z,96.70
2019-03-10T22:12:08.715Z,96.80
2019-03-10T22:14:39.539Z,96.90
2019-03-10T22:17:10.198Z,96.90
2019-03-10T22:19:41.015Z,96.60
2019-03-10T22:22:12.203Z,96.80
2019-03-10T22:24:42.977Z,97.00
2019-03-10T22:27:17.300Z,96.70
2019-03-10T22:29:48.297Z,96.70
2019-03-10T22:32:21.270Z,96.70
2019-03-10T22:34:52.066Z,96.70
2019-03-10T22:37:23.849Z,96.60
2019-03-10T22:39:54.649Z,96.60
2019-03-10T22:42:28.645Z,97.00
2019-03-10T22:44:59.405Z,96.70
2019-03-10T22:47:30.169Z,96.80
2019-03-10T22:50:02.776Z,96.70
2019-03-10T22:52:35.039Z,96.80
2019-03-10T23:02:27.500Z,96.90
2019-03-10T23:04:59.365Z,96.80
2019-03-10T23:07:30.224Z,96.70
2019-03-10T23:10:00.986Z,96.60
2019-03-10T23:12:31.970Z,96.80
2019-03-10T23:15:02.671Z,96.80
2019-03-10T23:17:34.555Z,96.60
2019-03-10T23:20:05.977Z,96.70
2019-03-10T23:22:36.798Z,96.50
2019-03-10T23:25:07.316Z,96.60
2019-03-10T23:27:38.297Z,96.30
2019-03-10T23:30:10.354Z,96.30
2019-03-10T23:32:41.243Z,96.30
2019-03-10T23:35:12.917Z,96.30
2019-03-10T23:37:43.634Z,96.10
2019-03-10T23:40:14.470Z,96.30
2019-03-10T23:42:45.306Z,96.30
2019-03-10T23:45:16.223Z,96.20
2019-03-10T23:47:47.240Z,96.10
2019-03-10T23:50:18.105Z,95.90
2019-03-10T23:52:48.861Z,95.70
2019-03-10T23:55:19.778Z,95.80
2019-03-10T23:57:50.524Z,95.60
